Time;durP1;ratioP1;P1;durP2;ratioP2;P2;SDS_P1;SDS_P2;PMS_P1;PMS_P2;Temp;Humidity;BMP_temperature;BMP_pressure;BME280_temperature;BME280_humidity;BME280_pressure;Samples;Min_cycle;Max_cycle;Signal;HPM_P1;HPM_P2
2023/03/28 00:01:53;;;;;;;12.95;6.05;;;1.40;99.90;;;;;;7611168;19;20014;-78
2023/03/28 00:04:28;;;;;;;7.88;5.13;;;1.40;99.90;;;;;;7606357;19;20021;-78
2023/03/28 00:07:01;;;;;;;10.10;5.78;;;1.30;99.90;;;;;;7617391;19;20044;-76
2023/03/28 00:09:33;;;;;;;9.90;5.55;;;1.30;99.90;;;;;;7611735;19;20789;-77
2023/03/28 00:12:05;;;;;;;15.02;5.45;;;1.30;99.90;;;;;;7605902;19;20353;-76
2023/03/28 00:14:37;;;;;;;10.82;6.03;;;1.30;99.90;;;;;;7607294;19;20019;-77
2023/03/28 00:17:10;;;;;;;11.33;6.80;;;1.30;99.90;;;;;;7611904;19;20026;-76
2023/03/28 00:19:45;;;;;;;12.73;5.90;;;1.20;99.90;;;;;;7609756;19;20587;-79
2023/03/28 00:22:21;;;;;;;11.23;5.78;;;1.20;99.90;;;;;;7612320;19;20024;-79
2023/03/28 00:24:55;;;;;;;12.93;5.80;;;1.20;99.90;;;;;;7608289;19;20055;-77
2023/03/28 00:27:28;;;;;;;11.13;5.32;;;1.10;99.90;;;;;;7585908;19;20006;-77
2023/03/28 00:30:01;;;;;;;16.05;5.93;;;1.10;99.90;;;;;;7582069;19;20620;-76
2023/03/28 00:32:33;;;;;;;;;;;1.10;99.90;;;;;;7593698;19;20038;-75
2023/03/28 00:35:06;;;;;;;10.88;6.10;;;1.10;99.90;;;;;;7597951;19;20002;-78
2023/03/28 00:37:40;;;;;;;11.85;6.40;;;1.10;99.90;;;;;;7610893;19;20011;-78
2023/03/28 00:40:13;;;;;;;13.85;6.00;;;1.10;99.90;;;;;;7588108;19;20611;-77
2023/03/28 00:42:45;;;;;;;14.07;6.20;;;1.10;99.90;;;;;;7603552;19;20022;-78
2023/03/28 00:45:20;;;;;;;10.77;6.22;;;1.10;99.90;;;;;;7600172;19;20014;-78
2023/03/28 00:48:00;;;;;;;11.40;6.20;;;1.10;99.90;;;;;;7607179;19;20018;-77
2023/03/28 00:50:36;;;;;;;11.70;6.18;;;1.20;99.90;;;;;;7604386;19;20038;-78
2023/03/28 00:53:13;;;;;;;11.90;6.47;;;1.20;99.90;;;;;;7615313;19;20044;-79
2023/03/28 00:55:50;;;;;;;10.32;6.30;;;1.20;99.90;;;;;;7610181;19;20007;-76
2023/03/28 00:58:28;;;;;;;10.60;6.38;;;1.20;99.90;;;;;;7614111;19;20028;-78
2023/03/28 01:01:00;;;;;;;10.48;5.65;;;1.30;99.90;;;;;;7611151;19;20014;-77
2023/03/28 01:03:34;;;;;;;13.32;6.32;;;1.30;99.90;;;;;;7591769;19;20022;-78
2023/03/28 01:06:12;;;;;;;9.15;5.55;;;1.30;99.90;;;;;;7602020;19;20781;-78
2023/03/28 01:08:45;;;;;;;11.10;6.22;;;1.30;99.90;;;;;;7595343;19;20018;-76
2023/03/28 01:11:20;;;;;;;10.07;6.10;;;1.30;99.90;;;;;;7589404;19;20431;-76
2023/03/28 01:13:54;;;;;;;15.27;6.20;;;1.30;99.90;;;;;;7598806;19;20100;-76
2023/03/28 01:16:32;;;;;;;13.45;8.27;;;1.30;99.90;;;;;;7591114;19;20015;-75
2023/03/28 01:19:25;;;;;;;10.98;6.53;;;1.30;99.90;;;;;;7599591;19;20018;-77
2023/03/28 01:22:30;;;;;;;10.27;6.95;;;1.30;99.90;;;;;;7597868;19;20688;-78
2023/03/28 01:25:38;;;;;;;11.98;7.10;;;1.20;99.90;;;;;;7601215;19;20014;-76
2023/03/28 01:28:22;;;;;;;12.98;6.88;;;1.10;99.90;;;;;;7589461;19;20014;-77
2023/03/28 01:31:20;;;;;;;10.23;6.05;;;1.10;99.90;;;;;;7596666;19;20015;-77
2023/03/28 01:34:46;;;;;;;12.73;7.63;;;1.10;99.90;;;;;;7599471;19;20014;-77
2023/03/28 01:37:24;;;;;;;16.48;7.72;;;1.00;99.90;;;;;;7615037;19;20077;-78
2023/03/28 01:40:33;;;;;;;12.20;8.05;;;1.00;99.90;;;;;;7598941;19;20469;-78
2023/03/28 01:43:13;;;;;;;12.63;7.32;;;1.10;99.90;;;;;;7614582;19;20018;-78
2023/03/28 01:45:58;;;;;;;11.95;7.68;;;1.00;99.90;;;;;;7582559;19;20011;-79
2023/03/28 01:48:53;;;;;;;15.88;7.97;;;1.00;99.90;;;;;;7593041;19;21393;-78
2023/03/28 01:51:49;;;;;;;13.13;8.05;;;1.00;99.90;;;;;;7613829;19;20024;-78
2023/03/28 01:54:38;;;;;;;15.45;8.55;;;0.90;99.90;;;;;;7608419;19;20094;-77
2023/03/28 01:57:51;;;;;;;15.98;8.63;;;0.90;99.90;;;;;;7608783;19;20022;-77
2023/03/28 02:00:29;;;;;;;18.42;9.45;;;0.90;99.90;;;;;;7591299;19;20501;-77
2023/03/28 02:03:17;;;;;;;16.02;9.27;;;0.80;99.90;;;;;;7610673;19;20018;-77
2023/03/28 02:05:57;;;;;;;17.98;9.32;;;0.80;99.90;;;;;;7602408;19;20015;-77
2023/03/28 02:08:33;;;;;;;18.13;9.07;;;0.80;99.90;;;;;;7613243;19;20032;-78
2023/03/28 02:11:19;;;;;;;18.35;8.98;;;0.80;99.90;;;;;;7610901;19;20022;-78
2023/03/28 02:14:18;;;;;;;15.02;9.00;;;0.80;99.90;;;;;;7614620;19;20061;-77
2023/03/28 02:17:08;;;;;;;16.92;9.38;;;0.90;99.90;;;;;;7609175;19;20054;-78
2023/03/28 02:20:10;;;;;;;17.52;9.25;;;0.90;99.90;;;;;;7599687;19;20026;-78
2023/03/28 02:23:12;;;;;;;;;;;1.00;99.90;;;;;;7614268;19;20014;-77
2023/03/28 02:26:11;;;;;;;20.92;9.80;;;1.00;99.90;;;;;;7588692;19;19938;-78
2023/03/28 02:29:00;;;;;;;19.50;10.23;;;0.90;99.90;;;;;;7606286;19;20037;-78
2023/03/28 02:31:53;;;;;;;16.40;9.27;;;0.90;99.90;;;;;;7602578;19;20021;-78
2023/03/28 02:34:25;;;;;;;18.25;9.60;;;0.90;99.90;;;;;;7582193;19;20705;-78
2023/03/28 02:37:00;;;;;;;15.50;9.23;;;0.90;99.90;;;;;;7587187;19;20018;-79
2023/03/28 02:39:38;;;;;;;18.35;9.95;;;1.00;99.90;;;;;;7587409;19;20018;-80
2023/03/28 02:42:44;;;;;;;22.35;9.63;;;0.90;99.90;;;;;;7594399;19;20014;-77
2023/03/28 02:45:50;;;;;;;19.40;10.60;;;0.90;99.90;;;;;;7598084;19;20077;-75
2023/03/28 02:48:44;;;;;;;19.05;10.02;;;1.00;99.90;;;;;;7600037;19;20025;-78
2023/03/28 02:51:24;;;;;;;20.73;9.93;;;0.90;99.90;;;;;;7598266;19;20006;-76
2023/03/28 02:54:16;;;;;;;18.65;10.65;;;0.90;99.90;;;;;;7601671;19;20074;-75
2023/03/28 02:57:03;;;;;;;18.55;11.00;;;0.80;99.90;;;;;;7590365;19;20442;-77
2023/03/28 02:59:56;;;;;;;16.88;9.77;;;0.80;99.90;;;;;;7599182;19;20019;-77
2023/03/28 03:02:28;;;;;;;;;;;0.70;99.90;;;;;;7565021;19;20114;-75
2023/03/28 03:05:02;;;;;;;23.27;10.18;;;0.70;99.90;;;;;;7570696;19;19919;-76
2023/03/28 03:07:38;;;;;;;20.75;10.20;;;0.70;99.90;;;;;;7601666;19;20409;-77
2023/03/28 03:10:12;;;;;;;17.83;9.57;;;0.60;99.90;;;;;;7598104;19;20026;-78
2023/03/28 03:12:49;;;;;;;20.95;11.25;;;0.60;99.90;;;;;;7589301;19;20014;-76
2023/03/28 03:15:21;;;;;;;21.80;11.27;;;0.60;99.90;;;;;;7606832;19;20015;-76
2023/03/28 03:18:00;;;;;;;20.02;9.70;;;0.60;99.90;;;;;;7603461;19;20026;-77
2023/03/28 03:20:36;;;;;;;19.77;10.43;;;0.60;99.90;;;;;;7600327;19;20025;-77
2023/03/28 03:23:08;;;;;;;23.02;9.82;;;0.50;99.90;;;;;;7597388;19;20023;-78
2023/03/28 03:25:42;;;;;;;26.40;10.70;;;0.50;99.90;;;;;;7581956;19;20040;-77
2023/03/28 03:28:20;;;;;;;19.05;10.30;;;0.50;99.90;;;;;;7576221;19;20057;-77
2023/03/28 03:30:54;;;;;;;27.45;11.98;;;0.50;99.90;;;;;;7575949;19;20014;-78
2023/03/28 03:33:42;;;;;;;19.10;10.50;;;0.50;99.90;;;;;;7590228;19;20027;-76
2023/03/28 03:36:17;;;;;;;19.08;10.55;;;0.50;99.90;;;;;;7578636;19;20022;-77
2023/03/28 03:38:51;;;;;;;19.90;9.93;;;0.50;99.90;;;;;;7596516;19;20014;-78
2023/03/28 03:41:26;;;;;;;19.13;10.15;;;0.50;99.90;;;;;;7591252;19;20011;-79
2023/03/28 03:43:58;;;;;;;21.85;11.55;;;0.60;99.90;;;;;;7590149;19;20038;-78
2023/03/28 03:46:33;;;;;;;19.20;10.93;;;0.60;99.90;;;;;;7559339;19;20015;-76
2023/03/28 03:49:08;;;;;;;22.38;10.98;;;0.60;99.90;;;;;;7592551;19;20018;-77
2023/03/28 03:51:40;;;;;;;21.00;11.00;;;0.60;99.90;;;;;;7574566;19;20022;-77
2023/03/28 03:54:13;;;;;;;21.05;11.38;;;0.70;99.90;;;;;;7599023;19;20002;-77
2023/03/28 03:56:45;;;;;;;21.27;11.38;;;0.70;99.90;;;;;;7587035;19;20029;-77
2023/03/28 03:59:18;;;;;;;20.58;10.82;;;0.70;99.90;;;;;;7552743;19;20018;-77
2023/03/28 04:01:51;;;;;;;20.70;10.68;;;0.70;99.90;;;;;;7553940;19;20983;-78
2023/03/28 04:04:23;;;;;;;20.77;10.65;;;0.70;99.90;;;;;;7592227;19;20081;-76
2023/03/28 04:07:14;;;;;;;25.75;10.43;;;0.70;99.90;;;;;;7590204;19;23320;-77
2023/03/28 04:09:48;;;;;;;20.98;11.00;;;0.70;99.90;;;;;;7542050;19;20579;-77
2023/03/28 04:12:21;;;;;;;21.05;9.57;;;0.80;99.90;;;;;;7561996;19;20011;-77
2023/03/28 04:14:55;;;;;;;24.80;10.88;;;0.80;99.90;;;;;;7590121;19;20025;-77
2023/03/28 04:17:48;;;;;;;19.70;10.36;;;0.80;99.90;;;;;;7347559;19;10001408;-77
2023/03/28 04:20:28;;;;;;;20.30;9.98;;;0.70;99.90;;;;;;5539342;19;10000631;-76
2023/03/28 04:23:07;;;;;;;19.35;10.68;;;0.80;99.90;;;;;;7583624;19;20124;-79
2023/03/28 04:25:41;;;;;;;18.25;10.57;;;0.70;99.90;;;;;;7574885;19;20019;-77
2023/03/28 04:28:18;;;;;;;20.90;11.23;;;0.60;99.90;;;;;;7575101;19;20026;-79
2023/03/28 04:30:59;;;;;;;21.02;10.70;;;0.70;99.90;;;;;;7568063;19;21845;-77
2023/03/28 04:33:52;;;;;;;18.35;10.38;;;0.60;99.90;;;;;;7548804;19;20019;-77
2023/03/28 04:36:25;;;;;;;18.73;10.88;;;0.60;99.90;;;;;;7562505;19;20019;-77
2023/03/28 04:39:05;;;;;;;23.40;10.73;;;0.60;99.90;;;;;;7554797;19;20877;-73
2023/03/28 04:41:54;;;;;;;25.35;11.05;;;0.50;99.90;;;;;;7567243;19;20041;-78
2023/03/28 04:44:31;;;;;;;20.38;10.48;;;0.50;99.90;;;;;;7567721;19;20015;-81
2023/03/28 04:47:10;;;;;;;26.17;12.32;;;0.50;99.90;;;;;;7558450;19;20584;-78
2023/03/28 04:49:43;;;;;;;20.45;10.70;;;0.40;99.90;;;;;;7555348;19;20968;-78
2023/03/28 04:52:15;;;;;;;22.80;11.97;;;0.40;99.90;;;;;;7557050;19;20153;-78
2023/03/28 04:54:50;;;;;;;22.15;11.13;;;0.40;99.90;;;;;;7545655;19;20283;-78
2023/03/28 04:57:25;;;;;;;23.20;10.23;;;0.40;99.90;;;;;;7558542;19;20077;-80
2023/03/28 05:00:08;;;;;;;19.75;11.48;;;0.30;99.90;;;;;;7573282;19;20053;-80
2023/03/28 05:02:59;;;;;;;24.70;12.48;;;0.30;99.90;;;;;;7577099;19;20014;-82
2023/03/28 05:05:40;;;;;;;24.40;11.35;;;0.30;99.90;;;;;;7579069;19;20637;-78
2023/03/28 05:08:17;;;;;;;22.85;11.35;;;0.30;99.90;;;;;;7581069;19;20015;-81
2023/03/28 05:10:50;;;;;;;25.77;11.85;;;0.30;99.90;;;;;;7558862;19;20274;-78
2023/03/28 05:13:22;;;;;;;24.13;12.27;;;0.30;99.90;;;;;;7551006;19;20690;-79
2023/03/28 05:16:06;;;;;;;20.48;11.73;;;0.30;99.90;;;;;;7518600;19;22292;-79
2023/03/28 05:19:05;;;;;;;24.25;11.43;;;0.30;99.90;;;;;;7559445;19;20039;-81
2023/03/28 05:22:03;;;;;;;30.77;12.85;;;0.30;99.90;;;;;;7546879;19;20026;-81
2023/03/28 05:24:40;;;;;;;23.55;11.13;;;0.30;99.90;;;;;;7570628;19;21000;-84
2023/03/28 05:27:19;;;;;;;20.10;11.07;;;0.20;99.90;;;;;;7583311;19;20014;-80
2023/03/28 05:29:52;;;;;;;23.23;11.63;;;0.20;99.90;;;;;;7600812;19;20743;-82
2023/03/28 05:32:25;;;;;;;21.88;11.30;;;0.10;99.90;;;;;;7618434;19;20011;-82
2023/03/28 05:34:59;;;;;;;23.83;10.98;;;0.10;99.90;;;;;;7609594;19;20011;-81
2023/03/28 05:37:35;;;;;;;23.58;11.68;;;0.10;99.90;;;;;;7577012;19;20566;-82
2023/03/28 05:40:13;;;;;;;23.95;11.55;;;0.10;99.90;;;;;;7578002;19;20023;-83
2023/03/28 05:42:47;;;;;;;32.65;11.50;;;0.10;99.90;;;;;;7580309;19;20093;-81
2023/03/28 05:45:22;;;;;;;21.67;10.32;;;0.00;99.90;;;;;;7574930;19;20022;-81
2023/03/28 05:48:05;;;;;;;22.50;11.20;;;0.10;99.90;;;;;;7605638;19;20006;-81
2023/03/28 05:50:40;;;;;;;24.42;12.80;;;0.10;99.90;;;;;;7593067;19;20062;-80
2023/03/28 05:53:12;;;;;;;24.63;11.67;;;0.10;99.90;;;;;;7586718;19;20433;-79
2023/03/28 05:55:44;;;;;;;27.60;11.13;;;0.10;99.90;;;;;;7595349;19;20077;-80
2023/03/28 05:58:18;;;;;;;24.02;11.63;;;0.20;99.90;;;;;;7597595;19;20033;-84
2023/03/28 06:00:51;;;;;;;31.90;12.60;;;0.20;99.90;;;;;;7614515;19;20014;-81
2023/03/28 06:03:24;;;;;;;20.87;10.50;;;0.30;99.90;;;;;;7609903;19;20022;-81
2023/03/28 06:05:57;;;;;;;22.48;9.55;;;0.40;99.90;;;;;;7571258;19;20599;-78
2023/03/28 06:08:31;;;;;;;23.00;10.88;;;0.40;99.90;;;;;;7616428;19;20014;-83
2023/03/28 06:11:04;;;;;;;27.15;10.20;;;0.40;99.90;;;;;;7600586;19;20022;-82
2023/03/28 06:13:51;;;;;;;22.05;9.93;;;0.40;99.90;;;;;;7590807;19;20017;-83
2023/03/28 06:16:23;;;;;;;23.08;10.90;;;0.50;99.90;;;;;;7572217;19;20006;-81
2023/03/28 06:19:03;;;;;;;23.40;10.82;;;0.50;99.90;;;;;;7571731;19;20014;-81
2023/03/28 06:21:53;;;;;;;24.88;10.10;;;0.70;99.90;;;;;;7595273;19;21090;-84
2023/03/28 06:24:25;;;;;;;23.02;8.75;;;0.80;99.90;;;;;;7596883;19;20053;-81
2023/03/28 06:26:58;;;;;;;23.85;10.43;;;0.80;99.90;;;;;;7575408;19;20073;-81
2023/03/28 06:29:31;;;;;;;20.63;9.63;;;0.80;99.90;;;;;;7576895;19;20552;-82
2023/03/28 06:32:06;;;;;;;20.92;8.82;;;0.90;99.90;;;;;;7606937;19;20018;-80
2023/03/28 06:34:38;;;;;;;22.13;9.30;;;1.00;99.90;;;;;;7608659;19;20577;-80
2023/03/28 06:37:10;;;;;;;23.90;9.38;;;1.10;99.90;;;;;;7595606;19;20018;-81
2023/03/28 06:39:57;;;;;;;18.17;9.32;;;1.10;99.90;;;;;;7615203;19;20011;-82
2023/03/28 06:42:38;;;;;;;17.25;7.65;;;1.10;99.90;;;;;;7039328;19;10002000;-82
2023/03/28 06:45:40;;;;;;;18.33;8.43;;;1.20;99.90;;;;;;7605388;19;20250;-82
2023/03/28 06:48:18;;;;;;;19.38;8.68;;;1.40;99.90;;;;;;7608628;19;20018;-80
2023/03/28 06:51:24;;;;;;;19.90;8.70;;;1.40;99.90;;;;;;7605633;19;20022;-80
2023/03/28 06:53:56;;;;;;;22.92;9.00;;;1.70;99.90;;;;;;7603310;19;20058;-83
2023/03/28 06:56:32;;;;;;;17.10;8.23;;;1.80;99.90;;;;;;7591704;19;20015;-84
2023/03/28 06:59:04;;;;;;;15.63;8.32;;;1.90;99.90;;;;;;7604492;19;20015;-82
2023/03/28 07:01:38;;;;;;;18.85;6.85;;;1.90;99.90;;;;;;7617232;19;20010;-82
2023/03/28 07:04:14;;;;;;;12.40;7.30;;;1.80;99.90;;;;;;7616233;19;20035;-82
2023/03/28 07:06:49;;;;;;;16.27;6.93;;;1.70;99.90;;;;;;7608931;19;20739;-81
2023/03/28 07:09:21;;;;;;;13.55;7.40;;;1.80;99.90;;;;;;7615912;19;20021;-79
2023/03/28 07:12:00;;;;;;;18.70;7.40;;;1.90;99.90;;;;;;7609312;19;20035;-81
2023/03/28 07:14:33;;;;;;;15.70;6.47;;;1.90;99.90;;;;;;7611846;19;20052;-78
2023/03/28 07:17:06;;;;;;;;;;;2.00;99.90;;;;;;7604363;19;20015;-79
2023/03/28 07:19:39;;;;;;;13.48;4.93;;;2.00;99.90;;;;;;7617752;19;20951;-85
2023/03/28 07:22:11;;;;;;;14.75;5.38;;;2.20;99.90;;;;;;7617871;19;20040;-79
2023/03/28 07:24:43;;;;;;;12.25;5.10;;;2.20;99.90;;;;;;7618554;19;20421;-80
2023/03/28 07:27:17;;;;;;;16.02;6.13;;;2.50;99.90;;;;;;7601340;19;20900;-80
2023/03/28 07:29:50;;;;;;;15.00;5.20;;;2.40;99.90;;;;;;7607114;19;20097;-82
2023/03/28 07:32:22;;;;;;;16.90;5.68;;;2.50;99.80;;;;;;7606593;19;20090;-78
2023/03/28 07:34:55;;;;;;;13.18;6.80;;;2.40;98.80;;;;;;7613008;19;20357;-78
2023/03/28 07:37:30;;;;;;;14.05;5.40;;;2.40;99.90;;;;;;7613004;19;20010;-82
2023/03/28 07:40:29;;;;;;;8.80;5.22;;;2.60;99.90;;;;;;7600242;19;20101;-79
2023/03/28 07:43:01;;;;;;;11.60;4.03;;;2.60;98.10;;;;;;7580598;19;20018;-78
2023/03/28 07:45:34;;;;;;;10.45;3.80;;;2.70;97.90;;;;;;7601690;19;20023;-82
2023/03/28 07:48:07;;;;;;;7.78;4.07;;;2.70;96.50;;;;;;7606765;19;20026;-79
2023/03/28 07:50:41;;;;;;;14.90;5.20;;;2.60;96.30;;;;;;7609306;19;21297;-82
2023/03/28 07:53:16;;;;;;;13.75;4.70;;;2.80;97.10;;;;;;7609166;19;20006;-78
2023/03/28 07:55:49;;;;;;;11.77;4.43;;;2.90;97.70;;;;;;7610716;19;20026;-79
2023/03/28 07:58:31;;;;;;;9.82;3.70;;;3.10;96.60;;;;;;7613094;19;20017;-79
2023/03/28 08:01:11;;;;;;;16.75;4.43;;;3.30;96.10;;;;;;7613481;19;20094;-80
2023/03/28 08:03:50;;;;;;;7.43;3.70;;;3.40;94.70;;;;;;7610106;19;20011;-80
2023/03/28 08:06:25;;;;;;;10.95;3.45;;;3.40;93.40;;;;;;7609707;19;20022;-80
2023/03/28 08:09:07;;;;;;;9.27;4.45;;;3.40;92.80;;;;;;7607103;19;20783;-81
2023/03/28 08:11:45;;;;;;;13.57;4.35;;;3.10;92.50;;;;;;7612719;19;20010;-79
2023/03/28 08:14:17;;;;;;;10.57;4.03;;;3.30;91.60;;;;;;7610222;19;20019;-82
2023/03/28 08:16:50;;;;;;;11.35;4.18;;;3.40;91.70;;;;;;7616339;19;20023;-80
2023/03/28 08:19:23;;;;;;;9.68;4.00;;;3.50;91.60;;;;;;7614019;19;20513;-80
2023/03/28 08:22:18;;;;;;;9.00;4.40;;;3.30;92.50;;;;;;7614571;19;20341;-80
2023/03/28 08:25:00;;;;;;;7.93;4.63;;;3.40;92.00;;;;;;7611568;19;20627;-79
2023/03/28 08:27:34;;;;;;;;;;;3.30;90.60;;;;;;7615247;19;20029;-80
2023/03/28 08:30:13;;;;;;;10.30;4.85;;;3.50;90.90;;;;;;7610794;19;20346;-82
2023/03/28 08:32:56;;;;;;;10.73;4.57;;;3.70;90.50;;;;;;7611157;19;20014;-80
2023/03/28 08:35:28;;;;;;;11.38;3.78;;;3.60;89.50;;;;;;7612665;19;20021;-80
2023/03/28 08:38:03;;;;;;;9.75;4.07;;;3.70;90.20;;;;;;7618112;19;20022;-80
2023/03/28 08:40:41;;;;;;;10.93;4.32;;;3.70;89.10;;;;;;7617311;19;20025;-81
2023/03/28 08:43:25;;;;;;;12.75;4.88;;;3.70;88.70;;;;;;7618448;19;20057;-81
2023/03/28 08:46:00;;;;;;;8.90;3.72;;;3.90;87.60;;;;;;7615793;19;20025;-78
2023/03/28 08:48:44;;;;;;;7.78;3.17;;;4.00;84.50;;;;;;7615103;19;20049;-82
2023/03/28 08:51:36;;;;;;;14.48;3.40;;;3.90;82.40;;;;;;7616306;19;20074;-81
2023/03/28 08:54:15;;;;;;;7.80;3.70;;;3.80;82.40;;;;;;7611406;19;20022;-81
2023/03/28 08:56:51;;;;;;;11.70;3.30;;;3.70;85.40;;;;;;7608644;19;20565;-79
2023/03/28 08:59:52;;;;;;;4.55;2.95;;;3.80;83.60;;;;;;7596001;19;20503;-81
2023/03/28 09:02:27;;;;;;;8.88;3.22;;;3.90;79.70;;;;;;7588979;19;20017;-78
2023/03/28 09:04:59;;;;;;;7.20;2.97;;;3.90;80.60;;;;;;7594612;19;20010;-82
2023/03/28 09:08:10;;;;;;;3.97;2.70;;;4.10;80.20;;;;;;7603321;19;20077;-80
2023/03/28 09:10:49;;;;;;;5.10;3.03;;;4.10;78.60;;;;;;7598138;19;20065;-79
2023/03/28 09:13:35;;;;;;;7.22;2.58;;;4.10;78.00;;;;;;7605966;19;20094;-81
2023/03/28 09:16:32;;;;;;;5.75;3.08;;;4.20;80.00;;;;;;7598252;19;20023;-80
2023/03/28 09:19:49;;;;;;;5.97;3.28;;;4.20;80.10;;;;;;7607357;19;20049;-80
2023/03/28 09:22:58;;;;;;;6.22;3.40;;;4.10;83.30;;;;;;7590365;19;20019;-82
2023/03/28 09:25:44;;;;;;;7.43;3.22;;;4.30;83.90;;;;;;7602154;19;20022;-80
2023/03/28 09:28:40;;;;;;;11.10;3.42;;;4.50;80.00;;;;;;7600990;19;20041;-79
2023/03/28 09:31:14;;;;;;;6.47;2.35;;;4.40;79.20;;;;;;7611422;19;20611;-81
2023/03/28 09:33:49;;;;;;;8.85;3.28;;;4.50;74.50;;;;;;7619788;19;20018;-80
2023/03/28 09:36:30;;;;;;;;;;;4.50;73.60;;;;;;7616750;19;20015;-81
2023/03/28 09:39:32;;;;;;;5.20;2.65;;;4.30;73.80;;;;;;7618612;19;20654;-80
2023/03/28 09:42:44;;;;;;;9.40;4.03;;;4.50;72.80;;;;;;7590469;19;20403;-80
2023/03/28 09:45:35;;;;;;;4.45;3.22;;;4.60;70.90;;;;;;7606523;19;20026;-82
2023/03/28 09:48:35;;;;;;;7.70;3.47;;;4.60;70.00;;;;;;7609299;19;20045;-82
2023/03/28 09:51:16;;;;;;;4.85;2.05;;;4.60;69.80;;;;;;7590152;19;20022;-79
2023/03/28 09:53:49;;;;;;;8.73;3.35;;;4.70;72.40;;;;;;7585154;19;20022;-76
2023/03/28 09:56:27;;;;;;;6.13;3.50;;;4.70;73.60;;;;;;7583938;19;20074;-82
2023/03/28 09:59:24;;;;;;;9.38;3.65;;;4.80;75.80;;;;;;7589401;19;20899;-79
2023/03/28 10:02:02;;;;;;;6.35;3.30;;;5.00;75.40;;;;;;7603449;19;20716;-79
2023/03/28 10:04:40;;;;;;;10.02;3.28;;;5.10;74.60;;;;;;7586691;19;21007;-80
2023/03/28 10:07:41;;;;;;;4.22;2.80;;;5.10;74.10;;;;;;7556814;19;20021;-81
2023/03/28 10:10:33;;;;;;;7.07;3.50;;;4.90;73.00;;;;;;7589346;19;20011;-81
2023/03/28 10:13:10;;;;;;;3.55;2.42;;;5.00;73.70;;;;;;7577647;19;20025;-81
2023/03/28 10:15:46;;;;;;;6.25;3.22;;;5.00;70.40;;;;;;7595187;19;20014;-79
2023/03/28 10:18:25;;;;;;;5.88;3.42;;;5.10;70.20;;;;;;7586566;19;20019;-82
2023/03/28 10:21:36;;;;;;;5.50;3.00;;;5.30;70.70;;;;;;7593086;19;20488;-80
2023/03/28 10:24:20;;;;;;;5.78;3.17;;;5.50;71.90;;;;;;7602973;19;20562;-80
2023/03/28 10:27:06;;;;;;;11.18;3.55;;;5.60;72.20;;;;;;7584301;19;20354;-79
2023/03/28 10:29:39;;;;;;;7.57;3.40;;;5.70;72.60;;;;;;7598720;19;20050;-81
2023/03/28 10:32:21;;;;;;;8.10;3.10;;;5.50;69.40;;;;;;7576667;19;20022;-79
2023/03/28 10:35:19;;;;;;;7.15;3.45;;;5.30;70.30;;;;;;7590174;19;20492;-81
2023/03/28 10:38:04;;;;;;;9.63;3.42;;;5.30;71.60;;;;;;7576703;19;20022;-80
2023/03/28 10:41:19;;;;;;;6.93;2.80;;;5.50;72.70;;;;;;7567641;19;20462;-78
2023/03/28 10:44:35;;;;;;;5.88;3.58;;;5.60;70.10;;;;;;7579710;19;20078;-80
2023/03/28 10:47:16;;;;;;;5.75;3.28;;;5.40;69.60;;;;;;7600051;19;20006;-79
2023/03/28 10:50:03;;;;;;;4.70;3.05;;;5.40;69.10;;;;;;7603217;19;20623;-80
2023/03/28 10:52:57;;;;;;;9.82;2.83;;;5.30;68.00;;;;;;7606233;19;20019;-80
2023/03/28 10:55:40;;;;;;;5.95;2.95;;;5.20;68.80;;;;;;7603759;19;20022;-80
2023/03/28 10:58:35;;;;;;;7.50;3.33;;;5.40;67.90;;;;;;7596591;19;20374;-80
2023/03/28 11:01:28;;;;;;;7.22;3.80;;;5.60;67.10;;;;;;7608240;19;20019;-78
2023/03/28 11:04:26;;;;;;;5.65;2.88;;;5.90;70.10;;;;;;7595073;19;20018;-80
2023/03/28 11:07:06;;;;;;;8.13;3.05;;;6.00;66.50;;;;;;7603866;19;20071;-79
2023/03/28 11:10:18;;;;;;;5.40;3.22;;;6.00;66.90;;;;;;7607553;19;20014;-77
2023/03/28 11:13:21;;;;;;;6.28;3.40;;;5.90;65.80;;;;;;7602622;19;20761;-79
2023/03/28 11:16:24;;;;;;;7.90;2.88;;;5.70;66.80;;;;;;7568273;19;20551;-78
2023/03/28 11:19:35;;;;;;;9.07;3.70;;;6.00;69.20;;;;;;7586783;19;20505;-78
2023/03/28 11:22:39;;;;;;;6.75;3.60;;;6.30;67.20;;;;;;7589441;19;20010;-80
2023/03/28 11:25:44;;;;;;;7.88;3.30;;;6.60;65.60;;;;;;7571554;19;20014;-78
2023/03/28 11:28:49;;;;;;;7.15;3.55;;;6.80;65.30;;;;;;7602479;19;20018;-80
2023/03/28 11:31:50;;;;;;;6.88;3.38;;;6.50;63.30;;;;;;7604454;19;21149;-80
2023/03/28 11:34:32;;;;;;;5.43;2.80;;;6.70;63.30;;;;;;7587468;19;20043;-78
2023/03/28 11:37:26;;;;;;;10.57;3.72;;;7.30;61.30;;;;;;7589580;19;20015;-78
2023/03/28 11:40:12;;;;;;;5.80;3.28;;;7.80;56.80;;;;;;7596028;19;20018;-79
2023/03/28 11:42:59;;;;;;;6.68;3.05;;;7.70;58.60;;;;;;7606088;19;20306;-79
2023/03/28 11:45:46;;;;;;;6.57;3.67;;;7.60;58.50;;;;;;7620590;19;20015;-81
2023/03/28 11:48:45;;;;;;;6.47;3.22;;;7.20;61.20;;;;;;7610848;19;20014;-79
2023/03/28 11:52:28;;;;;;;6.93;3.33;;;6.70;60.00;;;;;;7585988;19;21107;-79
2023/03/28 11:55:27;;;;;;;5.88;3.03;;;7.60;64.40;;;;;;7568452;19;20014;-77
2023/03/28 11:58:16;;;;;;;5.47;3.40;;;8.80;60.40;;;;;;7599325;19;20022;-78
2023/03/28 12:00:58;;;;;;;9.75;2.88;;;9.40;54.50;;;;;;7597829;19;20049;-80
2023/03/28 12:03:53;;;;;;;9.15;3.08;;;9.40;53.40;;;;;;7603286;19;20373;-81
2023/03/28 12:07:00;;;;;;;6.68;3.08;;;9.10;57.70;;;;;;7585837;19;20007;-79
2023/03/28 12:10:15;;;;;;;7.50;3.40;;;9.10;55.60;;;;;;7615368;19;20528;-81
2023/03/28 12:13:26;;;;;;;7.47;2.95;;;8.60;55.60;;;;;;7582758;19;20387;-80
2023/03/28 12:16:19;;;;;;;5.05;3.08;;;8.30;55.40;;;;;;7561144;19;20119;-80
2023/03/28 12:19:00;;;;;;;6.53;3.90;;;8.20;57.90;;;;;;7572896;19;20026;-79
2023/03/28 12:22:07;;;;;;;6.93;3.75;;;8.90;57.20;;;;;;7590102;19;20601;-79
2023/03/28 12:24:51;;;;;;;5.53;2.88;;;9.00;55.90;;;;;;7608298;19;20516;-79
2023/03/28 12:28:01;;;;;;;9.77;3.88;;;9.00;57.50;;;;;;7589246;19;20482;-80
2023/03/28 12:31:05;;;;;;;6.30;3.20;;;8.90;54.10;;;;;;7605149;19;20816;-77
2023/03/28 12:34:03;;;;;;;6.55;2.83;;;8.60;54.00;;;;;;7591873;19;20014;-78
2023/03/28 12:37:02;;;;;;;6.57;3.17;;;9.30;57.10;;;;;;7597407;19;20022;-78
2023/03/28 12:39:45;;;;;;;3.67;2.80;;;10.00;55.10;;;;;;7607630;19;20047;-79
2023/03/28 12:42:27;;;;;;;4.82;3.45;;;10.90;52.00;;;;;;7589926;19;20113;-78
2023/03/28 12:45:04;;;;;;;5.85;3.03;;;11.50;49.40;;;;;;7596926;19;20022;-78
2023/03/28 12:47:48;;;;;;;6.65;3.47;;;11.50;49.30;;;;;;7598603;19;20640;-79
2023/03/28 12:50:46;;;;;;;7.63;3.60;;;11.40;49.50;;;;;;7588198;19;20022;-79
2023/03/28 12:53:20;;;;;;;5.03;3.08;;;10.90;50.80;;;;;;7597282;19;20014;-79
2023/03/28 12:55:53;;;;;;;9.73;2.70;;;11.40;49.60;;;;;;7592054;19;20011;-77
2023/03/28 12:58:32;;;;;;;7.15;3.20;;;11.90;49.30;;;;;;7563558;19;20103;-80
2023/03/28 13:01:18;;;;;;;5.00;3.03;;;12.40;46.80;;;;;;7567786;19;20006;-78
2023/03/28 13:04:27;;;;;;;5.32;2.70;;;12.40;46.90;;;;;;7594547;19;20051;-79
2023/03/28 13:07:27;;;;;;;5.40;3.13;;;13.20;44.70;;;;;;7605397;19;20025;-80
2023/03/28 13:10:06;;;;;;;3.80;2.72;;;12.80;43.40;;;;;;7583907;19;20089;-77
2023/03/28 13:13:16;;;;;;;5.07;3.28;;;12.20;43.00;;;;;;7598143;19;20025;-80
2023/03/28 13:16:20;;;;;;;4.20;2.67;;;12.50;43.60;;;;;;7583689;19;20018;-80
2023/03/28 13:19:11;;;;;;;4.18;2.83;;;13.20;42.90;;;;;;7588335;19;20011;-79
2023/03/28 13:21:54;;;;;;;5.13;3.03;;;12.80;42.10;;;;;;7598053;19;20022;-77
2023/03/28 13:24:30;;;;;;;4.47;2.70;;;13.10;42.80;;;;;;7607945;19;21253;-81
2023/03/28 13:27:10;;;;;;;4.47;2.83;;;13.00;42.90;;;;;;7573659;19;20010;-80
2023/03/28 13:29:49;;;;;;;5.82;3.28;;;12.90;43.00;;;;;;7588114;19;20078;-78
2023/03/28 13:32:23;;;;;;;4.15;3.10;;;13.50;42.50;;;;;;7605030;19;20022;-78
2023/03/28 13:34:58;;;;;;;4.60;2.50;;;13.40;41.00;;;;;;7594020;19;20014;-78
2023/03/28 13:37:45;;;;;;;5.07;3.10;;;13.20;40.80;;;;;;7591352;19;20053;-79
2023/03/28 13:40:50;;;;;;;4.10;2.40;;;13.30;41.30;;;;;;7585607;19;20654;-77
2023/03/28 13:43:39;;;;;;;5.07;3.10;;;13.70;41.80;;;;;;7594223;19;20033;-78
2023/03/28 13:46:19;;;;;;;5.57;2.55;;;13.50;41.00;;;;;;7586147;19;20414;-77
2023/03/28 13:49:05;;;;;;;6.00;2.22;;;13.80;42.60;;;;;;7592029;19;20313;-77
2023/03/28 13:52:07;;;;;;;4.70;2.90;;;14.10;40.80;;;;;;7597975;19;20500;-77
2023/03/28 13:54:40;;;;;;;6.57;3.10;;;14.10;40.70;;;;;;7596451;19;20031;-78
2023/03/28 13:57:16;;;;;;;5.75;3.15;;;13.70;40.10;;;;;;7579094;19;20041;-77
2023/03/28 13:59:58;;;;;;;6.15;3.58;;;13.30;40.00;;;;;;7571986;19;20035;-79
2023/03/28 14:02:41;;;;;;;4.35;3.03;;;13.80;41.50;;;;;;7596564;19;20943;-78
2023/03/28 14:05:26;;;;;;;4.97;3.17;;;14.40;40.20;;;;;;7605375;19;20606;-78
2023/03/28 14:08:14;;;;;;;4.95;2.95;;;13.70;39.40;;;;;;7593648;19;20018;-78
2023/03/28 14:10:47;;;;;;;3.85;2.50;;;14.30;39.70;;;;;;7612625;19;20025;-78
2023/03/28 14:13:26;;;;;;;5.50;3.00;;;15.10;38.00;;;;;;7590596;19;20500;-76